createdAt,value
2018-07-05T00:00:02.285Z,1002.01
2018-07-05T00:01:16.583Z,1002.04
2018-07-05T00:02:30.308Z,1002.1
2018-07-05T00:03:44.543Z,1002.09
2018-07-05T00:04:59.519Z,1002.08
2018-07-05T00:06:14.300Z,1002.06
2018-07-05T00:07:28.275Z,1002.08
2018-07-05T00:08:42.777Z,1002.06
2018-07-05T00:09:56.761Z,1002.05
2018-07-05T00:11:11.272Z,1002.06
2018-07-05T00:12:26.094Z,1002.08
2018-07-05T00:13:40.505Z,1002.07
2018-07-05T00:14:54.737Z,1002.09
2018-07-05T00:16:09.233Z,1002.05
2018-07-05T00:17:23.995Z,1002.01
2018-07-05T00:18:37.737Z,1002.01
2018-07-05T00:19:51.958Z,1002.01
2018-07-05T00:21:06.262Z,1002.01
2018-07-05T00:22:21.440Z,1001.99
2018-07-05T00:23:35.674Z,1002
2018-07-05T00:24:50.389Z,1002.01
2018-07-05T00:26:05.190Z,1002.06
2018-07-05T00:27:19.979Z,1002.14
2018-07-05T00:28:34.690Z,1002.15
2018-07-05T00:29:49.712Z,1002.17
2018-07-05T00:31:04.189Z,1002.11
2018-07-05T00:32:18.458Z,1002.15
2018-07-05T00:33:32.655Z,1002.09
2018-07-05T00:34:47.133Z,1002.09
2018-07-05T00:36:01.811Z,1002.05
2018-07-05T00:37:16.011Z,1002.05
2018-07-05T00:38:30.217Z,1002.04
2018-07-05T00:39:45.222Z,1002.03
2018-07-05T00:40:59.688Z,1001.99
2018-07-05T00:42:14.690Z,1002.02
2018-07-05T00:43:29.126Z,1001.97
2018-07-05T00:44:43.622Z,1001.97
2018-07-05T00:45:58.595Z,1001.98
2018-07-05T00:47:13.196Z,1001.98
2018-07-05T00:48:27.701Z,1001.96
2018-07-05T00:49:42.357Z,1001.99
2018-07-05T00:50:56.562Z,1001.97
2018-07-05T00:52:10.529Z,1001.96
2018-07-05T00:53:24.483Z,1001.93
2018-07-05T00:54:39.219Z,1001.94
2018-07-05T00:55:53.437Z,1001.96
2018-07-05T00:57:08.457Z,1001.94
2018-07-05T00:58:23.144Z,1001.91
2018-07-05T00:59:37.380Z,1001.88
2018-07-05T01:00:52.392Z,1001.88
2018-07-05T01:02:06.837Z,1001.86
2018-07-05T01:03:20.794Z,1001.86
2018-07-05T01:04:35.048Z,1001.85
2018-07-05T01:05:49.512Z,1001.84
2018-07-05T01:07:04.752Z,1001.78
2018-07-05T01:08:19.017Z,1001.74
2018-07-05T01:09:33.210Z,1001.79
2018-07-05T01:10:47.420Z,1001.76
2018-07-05T01:12:01.624Z,1001.75
2018-07-05T01:13:16.637Z,1001.79
2018-07-05T01:14:30.791Z,1001.76
2018-07-05T01:15:46.189Z,1001.88
2018-07-05T01:17:00.437Z,1001.89
2018-07-05T01:18:15.469Z,1001.87
2018-07-05T01:19:30.744Z,1001.88
2018-07-05T01:20:45.426Z,1001.93
2018-07-05T01:21:59.902Z,1001.98
2018-07-05T01:23:14.000Z,1002.04
2018-07-05T01:24:28.885Z,1002.06
2018-07-05T01:25:43.140Z,1002.07
2018-07-05T01:26:57.845Z,1002.08
2018-07-05T01:28:12.148Z,1002.06
2018-07-05T01:29:26.580Z,1002.03
2018-07-05T01:30:41.134Z,1002.06
2018-07-05T01:31:55.939Z,1002.06
2018-07-05T01:33:10.658Z,1002.08
2018-07-05T01:34:25.102Z,1002.05
2018-07-05T01:35:39.863Z,1002.08
2018-07-05T01:36:54.601Z,1002.06
2018-07-05T01:38:08.842Z,1002.03
2018-07-05T01:39:24.017Z,1002.03
2018-07-05T01:40:37.713Z,1002.03
2018-07-05T01:41:51.896Z,1002.03
2018-07-05T01:43:06.107Z,1002.08
2018-07-05T01:44:20.557Z,1002.03
2018-07-05T01:45:35.541Z,1002.04
2018-07-05T01:46:49.463Z,1002.01
2018-07-05T01:48:03.901Z,1002.06
2018-07-05T01:49:18.668Z,1002
2018-07-05T01:50:33.421Z,1002.03
2018-07-05T01:51:48.339Z,1001.95
2018-07-05T01:53:02.779Z,1001.94
2018-07-05T01:54:17.204Z,1001.96
2018-07-05T01:55:31.528Z,1001.96
2018-07-05T01:56:46.258Z,1001.97
2018-07-05T01:58:00.974Z,1001.99
2018-07-05T01:59:15.315Z,1001.98
2018-07-05T02:00:29.557Z,1002.01
2018-07-05T02:01:44.398Z,1002
2018-07-05T02:02:59.176Z,1002.02
2018-07-05T02:04:14.164Z,1001.99
2018-07-05T02:05:28.795Z,1001.99
2018-07-05T02:06:43.273Z,1001.98
2018-07-05T02:07:58.416Z,1001.99
2018-07-05T02:09:13.277Z,1002
2018-07-05T02:10:27.284Z,1002.05
2018-07-05T02:11:41.515Z,1002.02
2018-07-05T02:12:55.960Z,1002.05
2018-07-05T02:14:10.682Z,1002.02
2018-07-05T02:15:25.898Z,1002
2018-07-05T02:16:40.084Z,1001.99
2018-07-05T02:17:54.496Z,1001.99
2018-07-05T02:19:08.443Z,1001.96
2018-07-05T02:20:22.736Z,1001.98
2018-07-05T02:21:37.742Z,1001.94
2018-07-05T02:22:52.674Z,1001.97
2018-07-05T02:24:07.394Z,1001.86
2018-07-05T02:25:21.877Z,1001.93
2018-07-05T02:26:36.233Z,1001.9
2018-07-05T02:27:50.932Z,1001.93
2018-07-05T02:29:05.856Z,1001.91
2018-07-05T02:30:20.973Z,1001.96
2018-07-05T02:31:34.974Z,1001.92
2018-07-05T02:32:49.173Z,1001.89
2018-07-05T02:34:03.959Z,1001.88
2018-07-05T02:35:18.718Z,1001.89
2018-07-05T02:36:32.892Z,1001.9
2018-07-05T02:37:47.069Z,1001.92
2018-07-05T02:39:01.287Z,1001.9
2018-07-05T02:40:16.001Z,1001.92
2018-07-05T02:41:30.351Z,1001.94
2018-07-05T02:42:45.108Z,1001.92
2018-07-05T02:43:59.577Z,1001.93
2018-07-05T02:45:14.148Z,1001.88
2018-07-05T02:46:28.520Z,1001.89
2018-07-05T02:47:42.755Z,1001.92
2018-07-05T02:48:57.254Z,1001.88
2018-07-05T02:50:11.993Z,1001.92
2018-07-05T02:51:26.132Z,1001.92
2018-07-05T02:52:41.375Z,1001.93
2018-07-05T02:53:56.092Z,1001.97
2018-07-05T02:55:10.055Z,1001.93
2018-07-05T02:56:24.703Z,1001.92
2018-07-05T02:57:39.477Z,1001.9
2018-07-05T02:58:54.432Z,1001.9
2018-07-05T03:00:08.906Z,1001.88
2018-07-05T03:01:23.448Z,1001.91
2018-07-05T03:02:38.215Z,1001.91
2018-07-05T03:03:52.912Z,1001.9
2018-07-05T03:05:07.261Z,1001.89
2018-07-05T03:06:21.000Z,1001.85
2018-07-05T03:07:35.727Z,1001.84
2018-07-05T03:08:49.963Z,1001.78
2018-07-05T03:10:04.537Z,1001.82
2018-07-05T03:11:19.310Z,1001.78
2018-07-05T03:12:33.347Z,1001.78
2018-07-05T03:13:48.303Z,1001.77
2018-07-05T03:15:03.016Z,1001.79
2018-07-05T03:16:17.742Z,1001.76
2018-07-05T03:17:32.891Z,1001.81
2018-07-05T03:18:47.875Z,1001.83
2018-07-05T03:20:02.595Z,1001.81
2018-07-05T03:21:17.775Z,1001.8
2018-07-05T03:22:31.926Z,1001.82
2018-07-05T03:23:46.521Z,1001.83
2018-07-05T03:25:00.492Z,1001.85
2018-07-05T03:26:15.387Z,1001.88
2018-07-05T03:27:29.627Z,1001.9
2018-07-05T03:28:44.076Z,1001.95
2018-07-05T03:29:59.037Z,1001.97
2018-07-05T03:31:13.324Z,1001.99
2018-07-05T03:32:27.621Z,1002
2018-07-05T03:33:41.856Z,1001.97
2018-07-05T03:34:56.836Z,1002
2018-07-05T03:36:18.151Z,1002.02
2018-07-05T03:37:32.443Z,1002.12
2018-07-05T03:38:47.171Z,1002.14
2018-07-05T03:40:01.872Z,1002.2
2018-07-05T03:41:15.846Z,1002.28
2018-07-05T03:42:30.343Z,1002.26
2018-07-05T03:43:45.073Z,1002.29
2018-07-05T03:44:59.293Z,1002.26
2018-07-05T03:46:14.288Z,1002.26
2018-07-05T03:47:29.135Z,1002.27
2018-07-05T03:48:44.082Z,1002.23
2018-07-05T03:49:58.260Z,1002.22
2018-07-05T03:51:12.718Z,1002.21
2018-07-05T03:52:27.295Z,1002.24
2018-07-05T03:53:41.529Z,1002.29
2018-07-05T03:54:56.005Z,1002.31
2018-07-05T03:56:10.507Z,1002.25
2018-07-05T03:57:24.977Z,1002.29
2018-07-05T03:58:39.861Z,1002.29
2018-07-05T03:59:54.705Z,1002.22
2018-07-05T04:01:09.489Z,1002.22
2018-07-05T04:02:24.443Z,1002.18
2018-07-05T04:03:39.156Z,1002.15
2018-07-05T04:04:53.630Z,1002.07
2018-07-05T04:06:08.090Z,1002.04
2018-07-05T04:07:23.099Z,1001.98
2018-07-05T04:08:37.586Z,1001.99
2018-07-05T04:09:52.683Z,1001.97
2018-07-05T04:11:07.170Z,1001.91
2018-07-05T04:12:21.397Z,1001.95
2018-07-05T04:13:36.570Z,1001.91
2018-07-05T04:14:51.448Z,1001.88
2018-07-05T04:16:06.440Z,1001.92
2018-07-05T04:17:21.152Z,1001.91
2018-07-05T04:18:35.884Z,1001.89
2018-07-05T04:19:50.600Z,1001.92
2018-07-05T04:21:04.855Z,1001.88
2018-07-05T04:22:19.352Z,1001.93
2018-07-05T04:23:34.280Z,1001.94
2018-07-05T04:24:49.019Z,1001.95
2018-07-05T04:26:03.392Z,1001.97
2018-07-05T04:27:18.120Z,1002.01
2018-07-05T04:28:32.108Z,1002
2018-07-05T04:29:46.917Z,1002.05
2018-07-05T04:31:01.459Z,1002.1
2018-07-05T04:32:16.450Z,1002.15
2018-07-05T04:33:30.410Z,1002.18
2018-07-05T04:34:45.355Z,1002.22
2018-07-05T04:35:59.641Z,1002.22
2018-07-05T04:37:14.056Z,1002.2
2018-07-05T04:38:29.236Z,1002.22
2018-07-05T04:39:43.854Z,1002.21
2018-07-05T04:40:57.844Z,1002.23
2018-07-05T04:42:12.351Z,1002.26
2018-07-05T04:43:27.297Z,1002.26
2018-07-05T04:44:42.758Z,1002.24
2018-07-05T04:45:57.499Z,1002.25
2018-07-05T04:47:12.491Z,1002.22
2018-07-05T04:48:26.710Z,1002.24
2018-07-05T04:49:41.201Z,1002.25
2018-07-05T04:50:56.019Z,1002.26
2018-07-05T04:52:10.752Z,1002.22
2018-07-05T04:53:26.060Z,1002.24
2018-07-05T04:54:40.064Z,1002.17
2018-07-05T04:55:55.102Z,1002.14
2018-07-05T04:57:09.586Z,1002.13
2018-07-05T04:58:24.460Z,1002.14
2018-07-05T04:59:39.668Z,1002.13
2018-07-05T05:00:54.820Z,1002.12
2018-07-05T05:02:09.842Z,1002.11
2018-07-05T05:03:24.733Z,1002.09
2018-07-05T05:04:39.240Z,1002.14
2018-07-05T05:05:53.319Z,1002.13
2018-07-05T05:07:08.155Z,1002.17
2018-07-05T05:08:22.716Z,1002.23
2018-07-05T05:09:37.752Z,1002.28
2018-07-05T05:10:52.366Z,1002.27
2018-07-05T05:12:07.343Z,1002.26
2018-07-05T05:13:21.612Z,1002.3
2018-07-05T05:14:36.353Z,1002.34
2018-07-05T05:15:50.753Z,1002.33
2018-07-05T05:17:05.462Z,1002.32
2018-07-05T05:18:20.178Z,1002.31
2018-07-05T05:19:34.155Z,1002.3
2018-07-05T05:20:48.753Z,1002.29
2018-07-05T05:22:03.513Z,1002.33
2018-07-05T05:23:17.783Z,1002.27
2018-07-05T05:24:32.049Z,1002.3
2018-07-05T05:25:47.027Z,1002.3
2018-07-05T05:27:01.283Z,1002.25
2018-07-05T05:28:16.101Z,1002.27
2018-07-05T05:29:30.350Z,1002.27
2018-07-05T05:30:44.841Z,1002.25
2018-07-05T05:31:59.077Z,1002.24
2018-07-05T05:33:13.292Z,1002.17
2018-07-05T05:34:28.370Z,1002.14
2018-07-05T05:35:43.437Z,1002.15
2018-07-05T05:36:57.937Z,1002.15
2018-07-05T05:38:11.915Z,1002.16
2018-07-05T05:39:26.854Z,1002.17
2018-07-05T05:40:41.868Z,1002.23
2018-07-05T05:41:57.015Z,1002.2
2018-07-05T05:43:11.763Z,1002.18
2018-07-05T05:44:26.280Z,1002.14
2018-07-05T05:45:40.488Z,1002.18
2018-07-05T05:46:55.293Z,1002.19
2018-07-05T05:48:10.058Z,1002.2
2018-07-05T05:49:24.973Z,1002.16
2018-07-05T05:50:39.998Z,1002.18
2018-07-05T05:51:54.886Z,1002.17
2018-07-05T05:53:10.459Z,1002.16
2018-07-05T05:54:25.246Z,1002.12
2018-07-05T05:55:39.664Z,1002.13
2018-07-05T05:56:54.389Z,1002.15
2018-07-05T05:58:08.637Z,1002.14
2018-07-05T05:59:23.180Z,1002.13
2018-07-05T06:00:37.681Z,1002.11
2018-07-05T06:01:52.204Z,1002.07
2018-07-05T06:03:07.224Z,1002.06
2018-07-05T06:04:22.204Z,1002
2018-07-05T06:05:36.444Z,1002.01
2018-07-05T06:06:51.015Z,1001.97
2018-07-05T06:08:05.790Z,1001.95
2018-07-05T06:09:20.750Z,1002.03
2018-07-05T06:10:34.940Z,1001.99
2018-07-05T06:11:50.038Z,1002.03
2018-07-05T06:13:04.783Z,1002.01
2018-07-05T06:14:19.775Z,1001.99
2018-07-05T06:15:34.521Z,1002.03
2018-07-05T06:16:49.255Z,1001.99
2018-07-05T06:18:03.513Z,1002.04
2018-07-05T06:19:18.026Z,1002.05
2018-07-05T06:20:32.527Z,1002.09
2018-07-05T06:21:46.991Z,1002.11
2018-07-05T06:23:02.624Z,1002.09
2018-07-05T06:24:16.889Z,1002.07
2018-07-05T06:25:31.220Z,1002.07
2018-07-05T06:26:46.568Z,1002.08
2018-07-05T06:28:01.099Z,1002.13
2018-07-05T06:29:15.577Z,1002.1
2018-07-05T06:30:30.121Z,1002.14
2018-07-05T06:31:44.866Z,1002.15
2018-07-05T06:32:59.669Z,1002.1
2018-07-05T06:34:15.047Z,1002.13
2018-07-05T06:35:35.973Z,1002.1
2018-07-05T06:36:50.286Z,1002.12
2018-07-05T06:38:05.178Z,1002.16
2018-07-05T06:39:19.230Z,1002.14
2018-07-05T06:40:34.438Z,1002.18
2018-07-05T06:41:49.208Z,1002.14
2018-07-05T06:43:04.382Z,1002.17
2018-07-05T06:44:18.620Z,1002.17
2018-07-05T06:45:33.119Z,1002.16
2018-07-05T06:46:48.101Z,1002.08
2018-07-05T06:48:03.396Z,1002.02
2018-07-05T06:49:18.017Z,1002.02
2018-07-05T06:50:32.880Z,1001.99
2018-07-05T06:51:47.371Z,1001.97
2018-07-05T06:53:02.496Z,1001.94
2018-07-05T06:54:17.839Z,1001.91
2018-07-05T06:55:32.901Z,1001.85
2018-07-05T06:56:47.140Z,1001.83
2018-07-05T06:58:01.407Z,1001.75
2018-07-05T06:59:16.887Z,1001.77
2018-07-05T07:00:31.464Z,1001.75
2018-07-05T07:01:45.686Z,1001.74
2018-07-05T07:03:00.428Z,1001.74
2018-07-05T07:04:15.461Z,1001.79
2018-07-05T07:05:30.115Z,1001.76
2018-07-05T07:06:44.955Z,1001.75
2018-07-05T07:07:59.374Z,1001.73
2018-07-05T07:09:14.409Z,1001.78
